sensor_id;sensor_type;location;lat;lon;timestamp;P1;durP1;ratioP1;P2;durP2;ratioP2
6823;SDS011;58633;49.470;11.004;2022-08-06T00:01:09;3.58;;;2.50;;
6823;SDS011;58633;49.470;11.004;2022-08-06T00:03:34;4.07;;;2.00;;
6823;SDS011;58633;49.470;11.004;2022-08-06T00:06:00;4.57;;;1.92;;
6823;SDS011;58633;49.470;11.004;2022-08-06T00:08:25;2.33;;;1.85;;
6823;SDS011;58633;49.470;11.004;2022-08-06T00:10:51;5.40;;;3.50;;
6823;SDS011;58633;49.470;11.004;2022-08-06T00:13:16;4.63;;;3.58;;
6823;SDS011;58633;49.470;11.004;2022-08-06T00:15:43;4.85;;;3.28;;
6823;SDS011;58633;49.470;11.004;2022-08-06T00:18:09;2.63;;;2.05;;
6823;SDS011;58633;49.470;11.004;2022-08-06T00:20:35;3.63;;;2.40;;
6823;SDS011;58633;49.470;11.004;2022-08-06T00:23:00;3.20;;;2.20;;
6823;SDS011;58633;49.470;11.004;2022-08-06T00:25:26;4.30;;;3.20;;
6823;SDS011;58633;49.470;11.004;2022-08-06T00:27:53;3.67;;;2.90;;
6823;SDS011;58633;49.470;11.004;2022-08-06T00:30:18;3.00;;;2.60;;
6823;SDS011;58633;49.470;11.004;2022-08-06T00:32:44;2.75;;;2.55;;
6823;SDS011;58633;49.470;11.004;2022-08-06T00:35:10;3.13;;;2.38;;
6823;SDS011;58633;49.470;11.004;2022-08-06T00:37:35;7.22;;;2.40;;
6823;SDS011;58633;49.470;11.004;2022-08-06T00:40:01;2.40;;;2.15;;
6823;SDS011;58633;49.470;11.004;2022-08-06T00:42:27;3.13;;;2.28;;
6823;SDS011;58633;49.470;11.004;2022-08-06T00:44:54;2.45;;;2.25;;
6823;SDS011;58633;49.470;11.004;2022-08-06T00:47:19;3.30;;;2.60;;
6823;SDS011;58633;49.470;11.004;2022-08-06T00:49:45;2.67;;;2.47;;
6823;SDS011;58633;49.470;11.004;2022-08-06T00:52:11;3.22;;;2.78;;
6823;SDS011;58633;49.470;11.004;2022-08-06T00:54:36;2.58;;;2.38;;
6823;SDS011;58633;49.470;11.004;2022-08-06T00:57:05;2.55;;;2.03;;
6823;SDS011;58633;49.470;11.004;2022-08-06T00:59:30;2.43;;;1.60;;
6823;SDS011;58633;49.470;11.004;2022-08-06T01:01:56;3.85;;;2.00;;
6823;SDS011;58633;49.470;11.004;2022-08-06T01:04:21;1.65;;;1.55;;
6823;SDS011;58633;49.470;11.004;2022-08-06T01:06:47;2.33;;;1.88;;
6823;SDS011;58633;49.470;11.004;2022-08-06T01:09:13;2.08;;;1.70;;
6823;SDS011;58633;49.470;11.004;2022-08-06T01:11:38;2.30;;;2.10;;
6823;SDS011;58633;49.470;11.004;2022-08-06T01:14:04;2.75;;;1.52;;
6823;SDS011;58633;49.470;11.004;2022-08-06T01:16:35;2.97;;;1.70;;
6823;SDS011;58633;49.470;11.004;2022-08-06T01:24:54;1.83;;;1.73;;
6823;SDS011;58633;49.470;11.004;2022-08-06T01:27:58;1.98;;;1.70;;
6823;SDS011;58633;49.470;11.004;2022-08-06T01:30:30;2.80;;;2.00;;
6823;SDS011;58633;49.470;11.004;2022-08-06T01:33:10;1.92;;;1.83;;
6823;SDS011;58633;49.470;11.004;2022-08-06T01:35:43;2.30;;;1.70;;
6823;SDS011;58633;49.470;11.004;2022-08-06T01:38:15;2.42;;;2.22;;
6823;SDS011;58633;49.470;11.004;2022-08-06T01:40:49;3.05;;;1.98;;
6823;SDS011;58633;49.470;11.004;2022-08-06T01:43:17;2.28;;;1.98;;
6823;SDS011;58633;49.470;11.004;2022-08-06T01:45:45;2.45;;;2.10;;
6823;SDS011;58633;49.470;11.004;2022-08-06T01:48:13;2.80;;;2.10;;
6823;SDS011;58633;49.470;11.004;2022-08-06T01:50:45;5.20;;;2.30;;
6823;SDS011;58633;49.470;11.004;2022-08-06T01:53:15;2.28;;;2.13;;
6823;SDS011;58633;49.470;11.004;2022-08-06T01:55:43;5.60;;;2.20;;
6823;SDS011;58633;49.470;11.004;2022-08-06T01:58:12;3.00;;;1.95;;
6823;SDS011;58633;49.470;11.004;2022-08-06T02:00:41;2.85;;;1.90;;
6823;SDS011;58633;49.470;11.004;2022-08-06T02:03:11;2.10;;;1.90;;
6823;SDS011;58633;49.470;11.004;2022-08-06T02:05:47;4.53;;;2.05;;
6823;SDS011;58633;49.470;11.004;2022-08-06T02:08:16;1.83;;;1.73;;
6823;SDS011;58633;49.470;11.004;2022-08-06T02:10:45;1.70;;;1.60;;
6823;SDS011;58633;49.470;11.004;2022-08-06T02:13:11;2.33;;;1.77;;
6823;SDS011;58633;49.470;11.004;2022-08-06T02:15:39;1.50;;;1.40;;
6823;SDS011;58633;49.470;11.004;2022-08-06T02:18:07;2.00;;;1.50;;
6823;SDS011;58633;49.470;11.004;2022-08-06T02:20:37;1.55;;;1.45;;
6823;SDS011;58633;49.470;11.004;2022-08-06T02:23:06;1.67;;;1.52;;
6823;SDS011;58633;49.470;11.004;2022-08-06T02:25:34;2.17;;;1.80;;
6823;SDS011;58633;49.470;11.004;2022-08-06T02:28:04;2.72;;;2.53;;
6823;SDS011;58633;49.470;11.004;2022-08-06T02:30:32;2.42;;;2.22;;
6823;SDS011;58633;49.470;11.004;2022-08-06T02:33:00;2.42;;;1.83;;
6823;SDS011;58633;49.470;11.004;2022-08-06T02:35:26;3.47;;;2.10;;
6823;SDS011;58633;49.470;11.004;2022-08-06T02:37:56;1.95;;;1.77;;
6823;SDS011;58633;49.470;11.004;2022-08-06T02:40:29;2.05;;;1.80;;
6823;SDS011;58633;49.470;11.004;2022-08-06T02:43:16;3.63;;;2.00;;
6823;SDS011;58633;49.470;11.004;2022-08-06T02:48:51;2.00;;;1.90;;
6823;SDS011;58633;49.470;11.004;2022-08-06T02:51:28;2.15;;;1.80;;
6823;SDS011;58633;49.470;11.004;2022-08-06T02:54:10;2.63;;;2.10;;
6823;SDS011;58633;49.470;11.004;2022-08-06T02:56:40;3.53;;;2.45;;
6823;SDS011;58633;49.470;11.004;2022-08-06T02:59:09;2.97;;;2.05;;
6823;SDS011;58633;49.470;11.004;2022-08-06T03:01:37;2.40;;;2.20;;
6823;SDS011;58633;49.470;11.004;2022-08-06T03:04:07;3.05;;;2.13;;
6823;SDS011;58633;49.470;11.004;2022-08-06T03:06:35;4.57;;;3.20;;
6823;SDS011;58633;49.470;11.004;2022-08-06T03:09:03;3.13;;;1.88;;
6823;SDS011;58633;49.470;11.004;2022-08-06T03:11:30;2.08;;;1.90;;
6823;SDS011;58633;49.470;11.004;2022-08-06T03:14:02;2.40;;;2.20;;
6823;SDS011;58633;49.470;11.004;2022-08-06T03:16:33;3.92;;;2.20;;
6823;SDS011;58633;49.470;11.004;2022-08-06T03:19:01;2.00;;;1.70;;
6823;SDS011;58633;49.470;11.004;2022-08-06T03:21:28;4.40;;;1.80;;
6823;SDS011;58633;49.470;11.004;2022-08-06T03:23:55;2.03;;;1.92;;
6823;SDS011;58633;49.470;11.004;2022-08-06T03:26:24;2.08;;;1.83;;
6823;SDS011;58633;49.470;11.004;2022-08-06T03:28:51;2.88;;;2.55;;
6823;SDS011;58633;49.470;11.004;2022-08-06T03:31:21;7.43;;;5.75;;
6823;SDS011;58633;49.470;11.004;2022-08-06T03:33:48;5.90;;;2.70;;
6823;SDS011;58633;49.470;11.004;2022-08-06T03:36:15;2.10;;;2.00;;
6823;SDS011;58633;49.470;11.004;2022-08-06T03:38:45;3.13;;;2.20;;
6823;SDS011;58633;49.470;11.004;2022-08-06T03:41:22;3.05;;;2.65;;
6823;SDS011;58633;49.470;11.004;2022-08-06T03:43:52;1.92;;;1.80;;
6823;SDS011;58633;49.470;11.004;2022-08-06T03:46:23;3.13;;;2.30;;
6823;SDS011;58633;49.470;11.004;2022-08-06T03:48:52;2.55;;;2.15;;
6823;SDS011;58633;49.470;11.004;2022-08-06T03:51:20;3.33;;;2.20;;
6823;SDS011;58633;49.470;11.004;2022-08-06T03:53:48;2.63;;;2.42;;
6823;SDS011;58633;49.470;11.004;2022-08-06T03:56:18;4.22;;;2.40;;
6823;SDS011;58633;49.470;11.004;2022-08-06T03:58:47;3.75;;;2.33;;
6823;SDS011;58633;49.470;11.004;2022-08-06T04:01:16;2.85;;;2.25;;
6823;SDS011;58633;49.470;11.004;2022-08-06T04:03:43;2.47;;;2.15;;
6823;SDS011;58633;49.470;11.004;2022-08-06T04:06:11;3.10;;;2.15;;
6823;SDS011;58633;49.470;11.004;2022-08-06T04:08:38;2.40;;;2.20;;
6823;SDS011;58633;49.470;11.004;2022-08-06T04:11:05;2.42;;;2.20;;
6823;SDS011;58633;49.470;11.004;2022-08-06T04:13:34;2.30;;;2.10;;
6823;SDS011;58633;49.470;11.004;2022-08-06T04:16:00;5.10;;;2.80;;
6823;SDS011;58633;49.470;11.004;2022-08-06T04:18:28;2.70;;;2.50;;
6823;SDS011;58633;49.470;11.004;2022-08-06T04:20:57;4.22;;;2.30;;
6823;SDS011;58633;49.470;11.004;2022-08-06T04:23:26;2.42;;;2.20;;
6823;SDS011;58633;49.470;11.004;2022-08-06T04:25:53;2.47;;;2.20;;
6823;SDS011;58633;49.470;11.004;2022-08-06T04:28:21;3.45;;;2.20;;
6823;SDS011;58633;49.470;11.004;2022-08-06T04:30:49;2.40;;;2.20;;
6823;SDS011;58633;49.470;11.004;2022-08-06T04:33:18;3.85;;;2.33;;
6823;SDS011;58633;49.470;11.004;2022-08-06T04:35:45;2.60;;;2.40;;
6823;SDS011;58633;49.470;11.004;2022-08-06T04:38:12;2.50;;;2.20;;
6823;SDS011;58633;49.470;11.004;2022-08-06T04:40:40;2.53;;;2.20;;
6823;SDS011;58633;49.470;11.004;2022-08-06T04:43:07;2.30;;;2.10;;
6823;SDS011;58633;49.470;11.004;2022-08-06T04:45:34;2.25;;;2.10;;
6823;SDS011;58633;49.470;11.004;2022-08-06T04:48:05;2.03;;;1.90;;
6823;SDS011;58633;49.470;11.004;2022-08-06T04:50:34;3.72;;;2.40;;
6823;SDS011;58633;49.470;11.004;2022-08-06T04:53:07;2.33;;;2.20;;
6823;SDS011;58633;49.470;11.004;2022-08-06T04:55:37;2.38;;;2.20;;
6823;SDS011;58633;49.470;11.004;2022-08-06T04:58:04;3.55;;;2.40;;
6823;SDS011;58633;49.470;11.004;2022-08-06T05:00:31;2.15;;;1.98;;
6823;SDS011;58633;49.470;11.004;2022-08-06T05:02:58;2.92;;;2.30;;
6823;SDS011;58633;49.470;11.004;2022-08-06T05:05:24;2.03;;;1.90;;
6823;SDS011;58633;49.470;11.004;2022-08-06T05:07:50;2.30;;;2.10;;
6823;SDS011;58633;49.470;11.004;2022-08-06T05:10:19;2.28;;;2.03;;
6823;SDS011;58633;49.470;11.004;2022-08-06T05:12:49;2.28;;;1.75;;
6823;SDS011;58633;49.470;11.004;2022-08-06T05:15:31;2.40;;;2.20;;
6823;SDS011;58633;49.470;11.004;2022-08-06T05:18:04;2.00;;;1.65;;
6823;SDS011;58633;49.470;11.004;2022-08-06T05:20:33;2.20;;;2.00;;
6823;SDS011;58633;49.470;11.004;2022-08-06T05:23:03;2.40;;;2.20;;
6823;SDS011;58633;49.470;11.004;2022-08-06T05:25:35;1.88;;;1.77;;
6823;SDS011;58633;49.470;11.004;2022-08-06T05:28:01;4.22;;;2.30;;
6823;SDS011;58633;49.470;11.004;2022-08-06T05:30:27;3.10;;;1.90;;
6823;SDS011;58633;49.470;11.004;2022-08-06T05:32:53;1.75;;;1.65;;
6823;SDS011;58633;49.470;11.004;2022-08-06T05:35:19;2.47;;;1.98;;
6823;SDS011;58633;49.470;11.004;2022-08-06T05:37:44;2.17;;;1.77;;
6823;SDS011;58633;49.470;11.004;2022-08-06T05:40:10;2.78;;;1.75;;
6823;SDS011;58633;49.470;11.004;2022-08-06T05:42:35;2.53;;;1.77;;
6823;SDS011;58633;49.470;11.004;2022-08-06T05:45:01;1.60;;;1.50;;
6823;SDS011;58633;49.470;11.004;2022-08-06T05:47:27;2.05;;;1.23;;
6823;SDS011;58633;49.470;11.004;2022-08-06T05:50:16;2.30;;;1.30;;
6823;SDS011;58633;49.470;11.004;2022-08-06T05:52:47;1.35;;;1.25;;
6823;SDS011;58633;49.470;11.004;2022-08-06T05:55:19;1.58;;;1.48;;
6823;SDS011;58633;49.470;11.004;2022-08-06T05:57:51;1.23;;;1.10;;
6823;SDS011;58633;49.470;11.004;2022-08-06T06:00:23;1.10;;;1.08;;
6823;SDS011;58633;49.470;11.004;2022-08-06T06:02:52;1.02;;;1.00;;
6823;SDS011;58633;49.470;11.004;2022-08-06T06:05:19;1.17;;;1.00;;
6823;SDS011;58633;49.470;11.004;2022-08-06T06:07:47;1.63;;;1.00;;
6823;SDS011;58633;49.470;11.004;2022-08-06T06:10:14;2.47;;;1.08;;
6823;SDS011;58633;49.470;11.004;2022-08-06T06:12:41;1.17;;;0.90;;
6823;SDS011;58633;49.470;11.004;2022-08-06T06:15:09;1.52;;;1.10;;
6823;SDS011;58633;49.470;11.004;2022-08-06T06:20:35;1.27;;;1.10;;
6823;SDS011;58633;49.470;11.004;2022-08-06T06:26:00;1.30;;;1.17;;
6823;SDS011;58633;49.470;11.004;2022-08-06T06:28:28;1.10;;;1.00;;
6823;SDS011;58633;49.470;11.004;2022-08-06T06:31:04;1.15;;;1.00;;
6823;SDS011;58633;49.470;11.004;2022-08-06T06:33:59;1.40;;;1.08;;
6823;SDS011;58633;49.470;11.004;2022-08-06T06:36:57;0.85;;;0.85;;
6823;SDS011;58633;49.470;11.004;2022-08-06T06:39:32;1.20;;;1.00;;
6823;SDS011;58633;49.470;11.004;2022-08-06T06:42:17;1.27;;;1.05;;
6823;SDS011;58633;49.470;11.004;2022-08-06T06:45:17;1.23;;;0.93;;
6823;SDS011;58633;49.470;11.004;2022-08-06T06:47:52;0.90;;;0.80;;
6823;SDS011;58633;49.470;11.004;2022-08-06T06:50:27;0.88;;;0.77;;
6823;SDS011;58633;49.470;11.004;2022-08-06T06:52:57;1.48;;;0.80;;
6823;SDS011;58633;49.470;11.004;2022-08-06T06:55:25;1.48;;;1.17;;
6823;SDS011;58633;49.470;11.004;2022-08-06T06:58:05;4.18;;;1.15;;
6823;SDS011;58633;49.470;11.004;2022-08-06T07:00:38;1.27;;;0.90;;
6823;SDS011;58633;49.470;11.004;2022-08-06T07:03:06;2.03;;;0.90;;
6823;SDS011;58633;49.470;11.004;2022-08-06T07:05:33;2.55;;;0.90;;
6823;SDS011;58633;49.470;11.004;2022-08-06T07:08:01;1.88;;;0.90;;
6823;SDS011;58633;49.470;11.004;2022-08-06T07:10:29;2.20;;;0.90;;
6823;SDS011;58633;49.470;11.004;2022-08-06T07:12:56;2.00;;;0.80;;
6823;SDS011;58633;49.470;11.004;2022-08-06T07:15:23;1.25;;;0.80;;
6823;SDS011;58633;49.470;11.004;2022-08-06T07:17:49;3.53;;;0.80;;
6823;SDS011;58633;49.470;11.004;2022-08-06T07:20:25;2.00;;;0.70;;
6823;SDS011;58633;49.470;11.004;2022-08-06T07:22:54;2.38;;;0.88;;
6823;SDS011;58633;49.470;11.004;2022-08-06T07:25:20;1.20;;;0.80;;
6823;SDS011;58633;49.470;11.004;2022-08-06T07:27:48;2.63;;;0.80;;
6823;SDS011;58633;49.470;11.004;2022-08-06T07:30:16;1.48;;;0.80;;
6823;SDS011;58633;49.470;11.004;2022-08-06T07:32:43;0.88;;;0.85;;
6823;SDS011;58633;49.470;11.004;2022-08-06T07:35:12;1.52;;;0.70;;
6823;SDS011;58633;49.470;11.004;2022-08-06T07:38:00;1.13;;;0.73;;
6823;SDS011;58633;49.470;11.004;2022-08-06T07:40:28;1.15;;;0.77;;
6823;SDS011;58633;49.470;11.004;2022-08-06T07:43:01;1.00;;;0.63;;
6823;SDS011;58633;49.470;11.004;2022-08-06T07:45:32;1.83;;;0.75;;
6823;SDS011;58633;49.470;11.004;2022-08-06T07:47:58;0.75;;;0.60;;
6823;SDS011;58633;49.470;11.004;2022-08-06T07:50:27;1.30;;;0.70;;
6823;SDS011;58633;49.470;11.004;2022-08-06T07:52:54;0.98;;;0.82;;
6823;SDS011;58633;49.470;11.004;2022-08-06T07:55:21;0.60;;;0.60;;
6823;SDS011;58633;49.470;11.004;2022-08-06T07:57:50;1.98;;;0.55;;
6823;SDS011;58633;49.470;11.004;2022-08-06T08:00:18;1.85;;;0.73;;
6823;SDS011;58633;49.470;11.004;2022-08-06T08:02:44;7.55;;;0.80;;
6823;SDS011;58633;49.470;11.004;2022-08-06T08:05:31;1.85;;;0.60;;
6823;SDS011;58633;49.470;11.004;2022-08-06T08:08:15;4.47;;;0.80;;
6823;SDS011;58633;49.470;11.004;2022-08-06T08:10:41;0.70;;;0.70;;
6823;SDS011;58633;49.470;11.004;2022-08-06T08:13:10;1.65;;;0.77;;
6823;SDS011;58633;49.470;11.004;2022-08-06T08:15:36;10.45;;;1.00;;
6823;SDS011;58633;49.470;11.004;2022-08-06T08:18:03;4.75;;;0.85;;
6823;SDS011;58633;49.470;11.004;2022-08-06T08:20:29;1.08;;;0.93;;
6823;SDS011;58633;49.470;11.004;2022-08-06T08:22:56;2.22;;;0.70;;
6823;SDS011;58633;49.470;11.004;2022-08-06T08:25:22;2.17;;;0.70;;
6823;SDS011;58633;49.470;11.004;2022-08-06T08:27:48;4.40;;;0.82;;
6823;SDS011;58633;49.470;11.004;2022-08-06T08:30:13;0.70;;;0.70;;
6823;SDS011;58633;49.470;11.004;2022-08-06T08:32:39;0.82;;;0.70;;
6823;SDS011;58633;49.470;11.004;2022-08-06T08:35:05;2.95;;;0.70;;
6823;SDS011;58633;49.470;11.004;2022-08-06T08:37:30;0.82;;;0.77;;
6823;SDS011;58633;49.470;11.004;2022-08-06T08:39:56;1.42;;;0.75;;
6823;SDS011;58633;49.470;11.004;2022-08-06T08:42:43;1.27;;;0.70;;
6823;SDS011;58633;49.470;11.004;2022-08-06T08:45:10;1.85;;;1.13;;
6823;SDS011;58633;49.470;11.004;2022-08-06T08:47:37;1.63;;;1.08;;
6823;SDS011;58633;49.470;11.004;2022-08-06T08:50:09;2.92;;;1.00;;
6823;SDS011;58633;49.470;11.004;2022-08-06T08:52:36;1.20;;;0.95;;
6823;SDS011;58633;49.470;11.004;2022-08-06T08:55:05;1.85;;;0.70;;
6823;SDS011;58633;49.470;11.004;2022-08-06T08:57:33;1.08;;;0.90;;
6823;SDS011;58633;49.470;11.004;2022-08-06T08:59:59;1.17;;;0.80;;
6823;SDS011;58633;49.470;11.004;2022-08-06T09:02:26;1.08;;;0.70;;
6823;SDS011;58633;49.470;11.004;2022-08-06T09:04:53;1.02;;;0.70;;
6823;SDS011;58633;49.470;11.004;2022-08-06T09:07:19;1.08;;;0.75;;
6823;SDS011;58633;49.470;11.004;2022-08-06T09:09:45;0.60;;;0.60;;
6823;SDS011;58633;49.470;11.004;2022-08-06T09:12:11;5.63;;;1.33;;
6823;SDS011;58633;49.470;11.004;2022-08-06T09:14:36;1.42;;;0.80;;
6823;SDS011;58633;49.470;11.004;2022-08-06T09:17:03;0.88;;;0.80;;
6823;SDS011;58633;49.470;11.004;2022-08-06T09:19:30;1.08;;;0.60;;
6823;SDS011;58633;49.470;11.004;2022-08-06T09:21:56;3.10;;;0.73;;
6823;SDS011;58633;49.470;11.004;2022-08-06T09:24:22;0.75;;;0.75;;
6823;SDS011;58633;49.470;11.004;2022-08-06T09:27:05;1.83;;;0.70;;
6823;SDS011;58633;49.470;11.004;2022-08-06T09:29:35;0.80;;;0.70;;
6823;SDS011;58633;49.470;11.004;2022-08-06T09:32:02;0.60;;;0.60;;
6823;SDS011;58633;49.470;11.004;2022-08-06T09:34:35;0.98;;;0.70;;
6823;SDS011;58633;49.470;11.004;2022-08-06T09:37:03;2.63;;;0.70;;
6823;SDS011;58633;49.470;11.004;2022-08-06T09:39:29;3.58;;;1.15;;
6823;SDS011;58633;49.470;11.004;2022-08-06T09:42:00;1.23;;;0.70;;
6823;SDS011;58633;49.470;11.004;2022-08-06T09:44:26;2.55;;;0.82;;
6823;SDS011;58633;49.470;11.004;2022-08-06T09:46:51;1.90;;;0.82;;
6823;SDS011;58633;49.470;11.004;2022-08-06T09:49:18;2.38;;;0.75;;
6823;SDS011;58633;49.470;11.004;2022-08-06T09:51:44;3.17;;;0.85;;
6823;SDS011;58633;49.470;11.004;2022-08-06T09:54:10;5.35;;;0.88;;
6823;SDS011;58633;49.470;11.004;2022-08-06T09:56:40;4.30;;;0.70;;
6823;SDS011;58633;49.470;11.004;2022-08-06T09:59:10;20.42;;;2.42;;
6823;SDS011;58633;49.470;11.004;2022-08-06T10:01:43;8.63;;;1.30;;
6823;SDS011;58633;49.470;11.004;2022-08-06T10:04:13;7.43;;;1.00;;
6823;SDS011;58633;49.470;11.004;2022-08-06T10:06:52;8.02;;;0.98;;
6823;SDS011;58633;49.470;11.004;2022-08-06T10:09:21;4.80;;;0.90;;
6823;SDS011;58633;49.470;11.004;2022-08-06T10:11:47;8.43;;;2.20;;
6823;SDS011;58633;49.470;11.004;2022-08-06T10:19:34;1.15;;;1.00;;
6823;SDS011;58633;49.470;11.004;2022-08-06T10:22:34;0.88;;;0.80;;
6823;SDS011;58633;49.470;11.004;2022-08-06T10:24:54;2.58;;;0.80;;
6823;SDS011;58633;49.470;11.004;2022-08-06T10:27:21;0.93;;;0.80;;
6823;SDS011;58633;49.470;11.004;2022-08-06T10:29:52;2.38;;;0.80;;
6823;SDS011;58633;49.470;11.004;2022-08-06T10:32:26;1.08;;;0.60;;
6823;SDS011;58633;49.470;11.004;2022-08-06T10:35:00;0.70;;;0.70;;
6823;SDS011;58633;49.470;11.004;2022-08-06T10:37:27;2.45;;;0.88;;
6823;SDS011;58633;49.470;11.004;2022-08-06T10:39:57;2.78;;;0.90;;
6823;SDS011;58633;49.470;11.004;2022-08-06T10:42:25;3.03;;;0.80;;
6823;SDS011;58633;49.470;11.004;2022-08-06T10:44:52;2.25;;;0.73;;
6823;SDS011;58633;49.470;11.004;2022-08-06T10:47:18;2.97;;;0.75;;
6823;SDS011;58633;49.470;11.004;2022-08-06T10:49:44;5.07;;;0.70;;
6823;SDS011;58633;49.470;11.004;2022-08-06T10:52:11;10.52;;;1.05;;
6823;SDS011;58633;49.470;11.004;2022-08-06T10:54:37;2.88;;;0.77;;
6823;SDS011;58633;49.470;11.004;2022-08-06T10:57:05;2.33;;;0.80;;
6823;SDS011;58633;49.470;11.004;2022-08-06T10:59:33;1.65;;;0.60;;
6823;SDS011;58633;49.470;11.004;2022-08-06T11:04:50;2.63;;;0.80;;
6823;SDS011;58633;49.470;11.004;2022-08-06T11:08:27;2.65;;;0.70;;
6823;SDS011;58633;49.470;11.004;2022-08-06T11:15:52;0.82;;;0.70;;
6823;SDS011;58633;49.470;11.004;2022-08-06T11:18:23;0.70;;;0.70;;
6823;SDS011;58633;49.470;11.004;2022-08-06T11:20:49;0.75;;;0.70;;
6823;SDS011;58633;49.470;11.004;2022-08-06T11:25:46;1.02;;;0.60;;
6823;SDS011;58633;49.470;11.004;2022-08-06T11:28:15;1.15;;;0.70;;
6823;SDS011;58633;49.470;11.004;2022-08-06T11:33:09;1.15;;;0.52;;
6823;SDS011;58633;49.470;11.004;2022-08-06T11:38:02;0.65;;;0.60;;
6823;SDS011;58633;49.470;11.004;2022-08-06T11:57:31;1.10;;;0.73;;
6823;SDS011;58633;49.470;11.004;2022-08-06T12:07:34;2.05;;;0.80;;
6823;SDS011;58633;49.470;11.004;2022-08-06T12:15:42;2.08;;;0.80;;
6823;SDS011;58633;49.470;11.004;2022-08-06T12:23:03;2.60;;;1.13;;
6823;SDS011;58633;49.470;11.004;2022-08-06T12:25:38;1.65;;;0.65;;
6823;SDS011;58633;49.470;11.004;2022-08-06T12:28:08;1.58;;;0.82;;
6823;SDS011;58633;49.470;11.004;2022-08-06T12:33:09;11.10;;;0.90;;
6823;SDS011;58633;49.470;11.004;2022-08-06T12:35:36;1.17;;;0.70;;
6823;SDS011;58633;49.470;11.004;2022-08-06T12:38:23;1.27;;;0.70;;
6823;SDS011;58633;49.470;11.004;2022-08-06T12:40:54;2.35;;;0.70;;
6823;SDS011;58633;49.470;11.004;2022-08-06T12:43:25;0.82;;;0.73;;
6823;SDS011;58633;49.470;11.004;2022-08-06T12:45:59;1.52;;;0.60;;
6823;SDS011;58633;49.470;11.004;2022-08-06T12:48:32;1.70;;;0.73;;
6823;SDS011;58633;49.470;11.004;2022-08-06T12:51:09;1.40;;;0.82;;
6823;SDS011;58633;49.470;11.004;2022-08-06T12:53:40;1.10;;;0.90;;
6823;SDS011;58633;49.470;11.004;2022-08-06T12:56:11;0.98;;;0.68;;
6823;SDS011;58633;49.470;11.004;2022-08-06T12:58:38;0.80;;;0.77;;
6823;SDS011;58633;49.470;11.004;2022-08-06T13:01:06;0.85;;;0.85;;
6823;SDS011;58633;49.470;11.004;2022-08-06T13:03:34;2.83;;;0.90;;
6823;SDS011;58633;49.470;11.004;2022-08-06T13:06:01;1.45;;;0.70;;
6823;SDS011;58633;49.470;11.004;2022-08-06T13:08:29;0.70;;;0.70;;
6823;SDS011;58633;49.470;11.004;2022-08-06T13:10:56;0.70;;;0.70;;
6823;SDS011;58633;49.470;11.004;2022-08-06T13:13:38;0.70;;;0.70;;
6823;SDS011;58633;49.470;11.004;2022-08-06T13:16:06;1.02;;;0.70;;
6823;SDS011;58633;49.470;11.004;2022-08-06T13:18:34;0.60;;;0.60;;
6823;SDS011;58633;49.470;11.004;2022-08-06T13:21:00;0.93;;;0.63;;
6823;SDS011;58633;49.470;11.004;2022-08-06T13:23:33;0.90;;;0.60;;
6823;SDS011;58633;49.470;11.004;2022-08-06T13:31:44;1.40;;;0.65;;
6823;SDS011;58633;49.470;11.004;2022-08-06T13:34:15;0.70;;;0.70;;
6823;SDS011;58633;49.470;11.004;2022-08-06T13:36:41;0.70;;;0.63;;
6823;SDS011;58633;49.470;11.004;2022-08-06T13:39:18;0.65;;;0.60;;
6823;SDS011;58633;49.470;11.004;2022-08-06T13:41:45;0.90;;;0.50;;
6823;SDS011;58633;49.470;11.004;2022-08-06T13:47:01;1.17;;;0.60;;
6823;SDS011;58633;49.470;11.004;2022-08-06T13:49:27;0.50;;;0.50;;
6823;SDS011;58633;49.470;11.004;2022-08-06T13:51:52;2.28;;;0.68;;
6823;SDS011;58633;49.470;11.004;2022-08-06T13:54:18;0.57;;;0.57;;
6823;SDS011;58633;49.470;11.004;2022-08-06T13:56:45;1.92;;;0.60;;
6823;SDS011;58633;49.470;11.004;2022-08-06T13:59:13;1.27;;;0.55;;
6823;SDS011;58633;49.470;11.004;2022-08-06T14:01:38;1.45;;;0.63;;
6823;SDS011;58633;49.470;11.004;2022-08-06T14:04:04;1.85;;;0.70;;
6823;SDS011;58633;49.470;11.004;2022-08-06T14:06:29;3.38;;;0.70;;
6823;SDS011;58633;49.470;11.004;2022-08-06T14:08:55;0.55;;;0.55;;
6823;SDS011;58633;49.470;11.004;2022-08-06T14:11:20;0.70;;;0.60;;
6823;SDS011;58633;49.470;11.004;2022-08-06T14:13:46;1.95;;;0.70;;
6823;SDS011;58633;49.470;11.004;2022-08-06T14:16:11;1.05;;;0.68;;
6823;SDS011;58633;49.470;11.004;2022-08-06T14:18:38;1.83;;;0.90;;
6823;SDS011;58633;49.470;11.004;2022-08-06T14:21:04;0.85;;;0.52;;
6823;SDS011;58633;49.470;11.004;2022-08-06T14:23:29;0.60;;;0.60;;
6823;SDS011;58633;49.470;11.004;2022-08-06T14:25:55;2.88;;;1.10;;
6823;SDS011;58633;49.470;11.004;2022-08-06T14:28:21;1.95;;;0.63;;
6823;SDS011;58633;49.470;11.004;2022-08-06T14:30:47;2.15;;;0.70;;
6823;SDS011;58633;49.470;11.004;2022-08-06T14:33:12;0.82;;;0.70;;
6823;SDS011;58633;49.470;11.004;2022-08-06T14:35:38;1.95;;;0.70;;
6823;SDS011;58633;49.470;11.004;2022-08-06T14:38:04;0.70;;;0.60;;
6823;SDS011;58633;49.470;11.004;2022-08-06T14:40:30;1.60;;;0.73;;
6823;SDS011;58633;49.470;11.004;2022-08-06T14:43:15;1.63;;;0.73;;
6823;SDS011;58633;49.470;11.004;2022-08-06T14:45:59;1.98;;;0.63;;
6823;SDS011;58633;49.470;11.004;2022-08-06T14:48:25;1.77;;;0.60;;
6823;SDS011;58633;49.470;11.004;2022-08-06T14:50:51;1.35;;;0.70;;
6823;SDS011;58633;49.470;11.004;2022-08-06T14:53:17;2.03;;;0.65;;
6823;SDS011;58633;49.470;11.004;2022-08-06T14:55:42;2.15;;;0.70;;
6823;SDS011;58633;49.470;11.004;2022-08-06T14:58:08;0.70;;;0.60;;
6823;SDS011;58633;49.470;11.004;2022-08-06T15:00:33;1.33;;;0.98;;
6823;SDS011;58633;49.470;11.004;2022-08-06T15:02:59;2.13;;;0.60;;
6823;SDS011;58633;49.470;11.004;2022-08-06T15:05:24;0.80;;;0.60;;
6823;SDS011;58633;49.470;11.004;2022-08-06T15:07:51;5.38;;;0.70;;
6823;SDS011;58633;49.470;11.004;2022-08-06T15:10:17;3.97;;;0.73;;
6823;SDS011;58633;49.470;11.004;2022-08-06T15:12:42;3.25;;;0.60;;
6823;SDS011;58633;49.470;11.004;2022-08-06T15:15:08;1.60;;;0.70;;
6823;SDS011;58633;49.470;11.004;2022-08-06T15:17:34;2.20;;;0.60;;
6823;SDS011;58633;49.470;11.004;2022-08-06T15:20:00;0.68;;;0.40;;
6823;SDS011;58633;49.470;11.004;2022-08-06T15:22:25;1.67;;;0.70;;
6823;SDS011;58633;49.470;11.004;2022-08-06T15:24:51;1.27;;;0.60;;
6823;SDS011;58633;49.470;11.004;2022-08-06T15:27:16;0.90;;;0.70;;
6823;SDS011;58633;49.470;11.004;2022-08-06T15:29:48;0.77;;;0.65;;
6823;SDS011;58633;49.470;11.004;2022-08-06T15:32:13;2.17;;;0.70;;
6823;SDS011;58633;49.470;11.004;2022-08-06T15:34:40;1.02;;;0.60;;
6823;SDS011;58633;49.470;11.004;2022-08-06T15:37:05;2.05;;;0.60;;
6823;SDS011;58633;49.470;11.004;2022-08-06T15:39:32;1.02;;;0.70;;
6823;SDS011;58633;49.470;11.004;2022-08-06T15:41:58;1.30;;;0.60;;
6823;SDS011;58633;49.470;11.004;2022-08-06T15:44:24;0.88;;;0.88;;
6823;SDS011;58633;49.470;11.004;2022-08-06T15:46:50;0.70;;;0.70;;
6823;SDS011;58633;49.470;11.004;2022-08-06T15:49:16;0.50;;;0.50;;
6823;SDS011;58633;49.470;11.004;2022-08-06T15:51:42;1.00;;;0.60;;
6823;SDS011;58633;49.470;11.004;2022-08-06T15:54:08;0.65;;;0.65;;
6823;SDS011;58633;49.470;11.004;2022-08-06T15:56:35;1.02;;;0.93;;
6823;SDS011;58633;49.470;11.004;2022-08-06T15:59:00;0.93;;;0.82;;
6823;SDS011;58633;49.470;11.004;2022-08-06T16:01:27;1.77;;;1.00;;
6823;SDS011;58633;49.470;11.004;2022-08-06T16:03:52;2.10;;;1.17;;
6823;SDS011;58633;49.470;11.004;2022-08-06T16:06:18;1.50;;;0.80;;
6823;SDS011;58633;49.470;11.004;2022-08-06T16:08:44;0.95;;;0.77;;
6823;SDS011;58633;49.470;11.004;2022-08-06T16:11:10;1.15;;;0.93;;
6823;SDS011;58633;49.470;11.004;2022-08-06T16:13:36;0.85;;;0.80;;
6823;SDS011;58633;49.470;11.004;2022-08-06T16:16:03;0.95;;;0.90;;
6823;SDS011;58633;49.470;11.004;2022-08-06T16:18:29;0.90;;;0.90;;
6823;SDS011;58633;49.470;11.004;2022-08-06T16:20:57;1.10;;;0.80;;